Time;durP1;ratioP1;P1;durP2;ratioP2;P2;SDS_P1;SDS_P2;PMS_P1;PMS_P2;Temp;Humidity;BMP_temperature;BMP_pressure;BME280_temperature;BME280_humidity;BME280_pressure;Samples;Min_cycle;Max_cycle;Signal;HPM_P1;HPM_P2
2022/10/27 00:03:50;;;;;;;0.00;0.00;;;;;;;14.69;62.87;98780.63;8282162;28;20245;-75
2022/10/27 00:07:53;;;;;;;0.00;0.00;;;;;;;14.71;62.54;98769.19;8281809;28;20247;-75
2022/10/27 00:11:56;;;;;;;0.00;0.00;;;;;;;14.64;62.68;98784.31;8281956;28;20249;-75
2022/10/27 00:16:01;;;;;;;0.00;0.00;;;;;;;14.57;62.58;98779.47;8282124;28;20414;-75
2022/10/27 00:20:05;;;;;;;0.00;0.00;;;;;;;14.50;62.33;98784.09;8282078;28;20233;-75
2022/10/27 00:24:08;;;;;;;0.10;0.10;;;;;;;14.56;62.27;98781.19;8281975;28;20493;-75
2022/10/27 00:28:10;;;;;;;0.03;0.03;;;;;;;14.55;62.47;98782.09;8281840;28;20575;-76
2022/10/27 00:32:14;;;;;;;0.00;0.00;;;;;;;14.43;63.06;98793.97;8281760;28;20229;-76
2022/10/27 00:36:18;;;;;;;0.00;0.00;;;;;;;14.48;63.55;98798.94;8281745;28;20240;-75
2022/10/27 00:40:21;;;;;;;0.00;0.00;;;;;;;14.43;64.36;98793.09;8281850;28;20240;-76
2022/10/27 00:44:33;;;;;;;0.10;0.10;;;;;;;14.54;63.84;98792.59;8287916;28;20249;-75
2022/10/27 00:48:37;;;;;;;0.10;0.10;;;;;;;14.50;64.84;98798.88;8287786;28;20533;-76
2022/10/27 00:52:43;;;;;;;0.10;0.10;;;;;;;14.52;64.98;98799.66;8287622;28;20288;-76
2022/10/27 00:56:47;;;;;;;0.00;0.00;;;;;;;14.34;65.34;98802.22;8287872;28;20241;-76
2022/10/27 01:00:50;;;;;;;0.10;0.10;;;;;;;14.26;65.92;98812.16;8287262;28;20241;-76
2022/10/27 01:04:57;;;;;;;0.10;0.10;;;;;;;14.31;65.62;98798.91;8270775;28;20246;-74
2022/10/27 01:09:00;;;;;;;0.10;0.10;;;;;;;14.44;64.95;98810.44;8287285;28;20233;-75
2022/10/27 01:13:03;;;;;;;0.10;0.10;;;;;;;14.26;65.47;98809.53;8287350;28;20234;-75
2022/10/27 01:17:14;;;;;;;0.10;0.10;;;;;;;14.25;65.98;98819.09;8286995;28;20233;-75
2022/10/27 01:21:44;;;;;;;0.10;0.10;;;;;;;14.20;66.38;98825.44;8287080;28;20233;-76
2022/10/27 01:26:06;;;;;;;0.10;0.10;;;;;;;14.17;66.70;98818.59;8286873;28;20233;-76
2022/10/27 01:30:10;;;;;;;0.07;0.07;;;;;;;14.25;66.50;98821.69;8286107;28;20421;-76
2022/10/27 01:34:18;;;;;;;0.00;0.00;;;;;;;14.27;66.45;98817.25;8286368;28;20268;-76
2022/10/27 01:38:26;;;;;;;0.10;0.10;;;;;;;14.25;66.36;98819.09;8286210;28;20517;-76
2022/10/27 01:42:40;;;;;;;0.00;0.00;;;;;;;14.31;65.97;98822.34;8286463;28;20237;-76
2022/10/27 01:46:43;;;;;;;0.10;0.10;;;;;;;14.14;66.51;98823.94;8285922;28;20276;-76
2022/10/27 01:50:48;;;;;;;0.10;0.10;;;;;;;14.13;66.60;98824.03;8285762;28;20241;-76
2022/10/27 01:55:07;;;;;;;0.00;0.00;;;;;;;14.23;66.42;98815.72;8271254;28;20229;-75
2022/10/27 01:59:20;;;;;;;0.00;0.00;;;;;;;14.26;65.46;98814.75;8285940;28;20284;-75
2022/10/27 02:03:27;;;;;;;0.00;0.00;;;;;;;14.18;65.58;98816.84;8285440;28;20240;-75
2022/10/27 02:07:37;;;;;;;0.00;0.00;;;;;;;14.15;65.17;98827.41;8285598;28;20384;-76
2022/10/27 02:11:42;;;;;;;0.03;0.03;;;;;;;14.13;65.56;98822.28;8285344;28;20241;-76
2022/10/27 02:15:47;;;;;;;0.10;0.10;;;;;;;14.15;65.40;98827.41;8285022;28;20245;-76
2022/10/27 02:19:52;;;;;;;0.00;0.00;;;;;;;14.19;65.10;98829.81;8285036;28;20531;-75
2022/10/27 02:23:57;;;;;;;0.10;0.10;;;;;;;14.13;64.94;98837.91;8276926;28;20233;-75
2022/10/27 02:28:03;;;;;;;0.00;0.00;;;;;;;14.09;64.25;98818.13;8284709;28;20233;-75
2022/10/27 02:32:08;;;;;;;0.00;0.00;;;;;;;14.10;64.45;98825.00;8284634;28;20533;-75
2022/10/27 02:36:10;;;;;;;0.00;0.00;;;;;;;14.11;64.25;98823.22;8284450;28;20313;-75
2022/10/27 02:40:14;;;;;;;0.00;0.00;;;;;;;14.03;64.07;98820.97;8284497;28;20459;-75
2022/10/27 02:44:17;;;;;;;0.00;0.00;;;;;;;13.95;63.72;98829.13;8284591;28;20230;-75
2022/10/27 02:48:20;;;;;;;0.00;0.00;;;;;;;13.95;64.19;98828.28;8284016;28;20401;-76
2022/10/27 02:52:23;;;;;;;0.00;0.00;;;;;;;13.88;64.38;98825.13;8284072;28;20229;-75
2022/10/27 02:56:27;;;;;;;0.00;0.00;;;;;;;13.77;64.59;98825.59;8283914;28;20233;-75
2022/10/27 03:00:30;;;;;;;0.00;0.00;;;;;;;13.79;64.30;98823.75;8283974;28;20483;-76
2022/10/27 03:04:32;;;;;;;0.00;0.00;;;;;;;13.88;64.33;98819.94;8282999;28;20229;-75
2022/10/27 03:08:35;;;;;;;0.00;0.00;;;;;;;13.79;64.37;98828.13;8283601;28;20245;-75
2022/10/27 03:12:39;;;;;;;0.00;0.00;;;;;;;13.67;64.25;98819.09;8283621;28;20557;-75
2022/10/27 03:16:42;;;;;;;0.00;0.00;;;;;;;13.71;64.19;98820.66;8283236;28;20234;-76
2022/10/27 03:20:45;;;;;;;0.00;0.00;;;;;;;13.65;63.70;98807.88;8283170;28;20241;-75
2022/10/27 03:24:48;;;;;;;0.10;0.10;;;;;;;13.72;63.98;98826.69;8283175;28;20233;-75
2022/10/27 03:28:53;;;;;;;0.00;0.00;;;;;;;13.69;64.01;98831.13;8282945;28;20541;-76
2022/10/27 03:32:56;;;;;;;0.00;0.00;;;;;;;13.72;64.02;98830.16;8281504;28;20529;-75
2022/10/27 03:36:59;;;;;;;0.07;0.07;;;;;;;13.65;63.26;98841.72;8282651;28;20237;-75
2022/10/27 03:41:02;;;;;;;0.10;0.10;;;;;;;13.64;63.66;98834.84;8282453;28;20264;-75
2022/10/27 03:45:07;;;;;;;0.10;0.10;;;;;;;13.64;63.43;98842.66;8282535;28;20234;-75
2022/10/27 03:49:10;;;;;;;0.10;0.10;;;;;;;13.68;64.27;98839.00;8281590;28;20256;-76
2022/10/27 03:53:12;;;;;;;0.07;0.07;;;;;;;13.70;64.13;98842.38;8282279;28;20245;-73
2022/10/27 03:57:15;;;;;;;0.00;0.00;;;;;;;13.66;63.54;98841.66;8282107;28;20280;-73
2022/10/27 04:01:19;;;;;;;0.00;0.00;;;;;;;13.56;63.05;98844.75;8281968;28;20238;-72
2022/10/27 04:05:23;;;;;;;0.00;0.00;;;;;;;13.50;63.10;98845.84;8281764;28;20229;-73
2022/10/27 04:09:25;;;;;;;0.00;0.00;;;;;;;13.50;63.23;98848.44;8282021;28;20233;-73
2022/10/27 04:13:28;;;;;;;0.03;0.03;;;;;;;13.46;62.80;98847.72;8281969;28;20453;-76
2022/10/27 04:17:34;;;;;;;0.10;0.10;;;;;;;13.34;62.96;98844.78;8285638;28;20225;-76
2022/10/27 04:21:36;;;;;;;0.03;0.03;;;;;;;13.34;62.62;98837.00;8288370;28;20521;-75
2022/10/27 04:25:39;;;;;;;0.07;0.07;;;;;;;13.41;62.65;98848.84;8288341;28;20252;-76
2022/10/27 04:29:42;;;;;;;0.00;0.00;;;;;;;13.35;62.83;98842.13;8287937;28;20237;-76
2022/10/27 04:33:46;;;;;;;0.07;0.07;;;;;;;13.35;63.13;98846.50;8288084;28;20256;-76
2022/10/27 04:37:49;;;;;;;0.00;0.00;;;;;;;13.34;62.39;98850.00;8287853;28;20357;-76
2022/10/27 04:41:52;;;;;;;0.10;0.10;;;;;;;13.30;62.72;98854.47;8279458;28;20505;-75
2022/10/27 04:45:54;;;;;;;0.10;0.10;;;;;;;13.24;62.21;98858.13;8287515;28;20308;-75
2022/10/27 04:49:59;;;;;;;0.10;0.10;;;;;;;13.20;62.70;98858.34;8287258;28;20336;-75
2022/10/27 04:54:01;;;;;;;0.10;0.10;;;;;;;13.14;63.63;98850.78;8287008;28;20234;-74
2022/10/27 04:58:04;;;;;;;0.10;0.10;;;;;;;13.18;63.55;98852.34;8286981;28;20257;-75
2022/10/27 05:02:10;;;;;;;0.07;0.07;;;;;;;13.13;63.37;98852.53;8286396;28;20559;-75
2022/10/27 05:06:14;;;;;;;0.00;0.00;;;;;;;13.21;64.13;98860.88;8285943;28;20328;-74
2022/10/27 05:10:17;;;;;;;0.10;0.10;;;;;;;13.21;64.88;98854.81;8286388;28;20256;-76
2022/10/27 05:14:20;;;;;;;0.00;0.00;;;;;;;13.23;65.27;98850.41;8285879;28;20229;-76
2022/10/27 05:18:22;;;;;;;0.10;0.10;;;;;;;13.23;65.17;98856.47;8286045;28;20233;-76
2022/10/27 05:22:27;;;;;;;0.00;0.00;;;;;;;13.28;65.52;98849.28;8286396;28;20253;-74
2022/10/27 05:26:30;;;;;;;0.00;0.00;;;;;;;15.34;79.69;98862.63;8285877;28;20238;-77
2022/10/27 05:30:38;;;;;;;0.00;0.00;;;;;;;15.39;62.64;98849.38;8286141;28;20241;-75
2022/10/27 05:34:40;;;;;;;0.00;0.00;;;;;;;14.21;63.16;98845.38;8286007;28;20237;-77
2022/10/27 05:38:46;;;;;;;0.00;0.00;;;;;;;13.88;63.86;98846.81;8285522;28;20563;-76
2022/10/27 05:42:50;;;;;;;0.00;0.00;;;;;;;13.68;64.10;98845.03;8285756;28;20233;-76
2022/10/27 05:46:53;;;;;;;0.00;0.00;;;;;;;13.57;64.61;98842.06;8268757;28;20300;-76
2022/10/27 05:50:56;;;;;;;0.00;0.00;;;;;;;13.61;63.69;98850.56;8284683;28;20241;-75
2022/10/27 05:55:00;;;;;;;0.00;0.00;;;;;;;13.64;63.51;98863.47;8284791;28;20237;-76
2022/10/27 05:59:03;;;;;;;0.00;0.00;;;;;;;13.53;63.66;98863.09;8284564;28;20261;-77
2022/10/27 06:03:07;;;;;;;0.00;0.00;;;;;;;13.56;64.00;98860.38;8284380;28;20249;-76
2022/10/27 06:07:10;;;;;;;0.00;0.00;;;;;;;13.51;63.43;98864.91;8284298;28;20256;-76
2022/10/27 06:11:15;;;;;;;0.00;0.00;;;;;;;13.53;63.15;98866.53;8284357;28;20532;-77
2022/10/27 06:15:17;;;;;;;0.10;0.10;;;;;;;13.38;63.50;98878.41;8284404;28;20416;-76
2022/10/27 06:19:20;;;;;;;0.10;0.10;;;;;;;13.42;63.37;98874.78;8283914;28;20252;-76
2022/10/27 06:23:23;;;;;;;0.00;0.00;;;;;;;13.57;62.96;98873.28;8283930;28;20232;-77
2022/10/27 06:27:27;;;;;;;0.00;0.00;;;;;;;13.56;63.44;98873.38;8284015;28;20296;-77
2022/10/27 06:31:30;;;;;;;0.00;0.00;;;;;;;13.48;63.63;98877.13;8283635;28;20240;-76
2022/10/27 06:35:33;;;;;;;0.00;0.00;;;;;;;13.47;63.77;98887.59;8283543;28;20236;-76
2022/10/27 06:39:36;;;;;;;0.00;0.00;;;;;;;13.61;65.19;98887.00;8283071;28;20291;-77
2022/10/27 06:43:40;;;;;;;0.00;0.00;;;;;;;13.26;66.56;98897.94;8283717;28;20238;-76
2022/10/27 06:47:43;;;;;;;0.03;0.03;;;;;;;13.59;66.21;98894.03;8283605;28;20287;-76
2022/10/27 06:51:46;;;;;;;0.00;0.00;;;;;;;13.47;66.80;98905.81;8283396;28;20240;-77
2022/10/27 06:55:49;;;;;;;0.00;0.00;;;;;;;13.77;66.19;98893.28;8283210;28;20233;-76
2022/10/27 06:59:53;;;;;;;0.00;0.00;;;;;;;13.84;65.96;98897.31;8283394;28;20421;-77
2022/10/27 07:03:55;;;;;;;0.10;0.10;;;;;;;13.91;66.32;98900.50;8282296;28;20291;-76
2022/10/27 07:07:58;;;;;;;0.00;0.00;;;;;;;13.94;66.75;98905.56;8282820;28;20237;-76
2022/10/27 07:12:01;;;;;;;0.00;0.00;;;;;;;13.88;67.32;98909.28;8282801;28;20261;-76
2022/10/27 07:16:06;;;;;;;0.00;0.00;;;;;;;14.06;67.12;98910.25;8283101;28;20421;-76
2022/10/27 07:20:09;;;;;;;0.00;0.00;;;;;;;14.10;67.54;98917.94;8283012;28;20233;-76
2022/10/27 07:24:12;;;;;;;0.00;0.00;;;;;;;14.24;67.03;98921.63;8282076;28;20256;-76
2022/10/27 07:28:16;;;;;;;0.00;0.00;;;;;;;14.40;67.01;98921.78;8282118;28;20240;-77
2022/10/27 07:32:23;;;;;;;0.00;0.00;;;;;;;14.40;68.45;98920.94;8282093;28;20237;-77
2022/10/27 07:36:25;;;;;;;0.00;0.00;;;;;;;14.55;67.15;98922.84;8281919;28;20237;-76
2022/10/27 07:40:28;;;;;;;0.10;0.10;;;;;;;15.36;65.35;98915.59;8282020;28;20262;-76
2022/10/27 07:44:34;;;;;;;0.00;0.00;;;;;;;15.70;64.61;98919.16;8281783;28;20237;-76
2022/10/27 07:48:38;;;;;;;0.00;0.00;;;;;;;16.29;63.34;98922.25;8281850;28;20229;-76
2022/10/27 07:52:42;;;;;;;0.00;0.00;;;;;;;16.77;61.72;98930.19;8281354;28;20261;-77
2022/10/27 07:56:48;;;;;;;0.00;0.00;;;;;;;16.35;63.50;98928.94;8281558;28;20240;-76
2022/10/27 08:00:50;;;;;;;0.00;0.00;;;;;;;17.42;60.29;98929.25;8281454;28;20237;-76
2022/10/27 08:04:56;;;;;;;0.00;0.00;;;;;;;16.84;61.50;98930.75;8272611;28;20233;-75
2022/10/27 08:08:59;;;;;;;0.00;0.00;;;;;;;17.50;59.59;98921.81;8281041;28;20434;-76
2022/10/27 08:13:02;;;;;;;0.00;0.00;;;;;;;18.00;58.90;98920.66;8281260;28;20520;-76
2022/10/27 08:17:04;;;;;;;0.00;0.00;;;;;;;18.32;57.29;98926.56;8280379;28;20237;-76
2022/10/27 08:21:09;;;;;;;0.00;0.00;;;;;;;19.09;56.36;98926.22;8280613;28;20413;-76
2022/10/27 08:25:11;;;;;;;0.00;0.00;;;;;;;19.20;56.73;98921.13;8280813;28;20234;-76
2022/10/27 08:29:14;;;;;;;0.00;0.00;;;;;;;18.92;56.90;98914.16;8280772;28;20242;-77
2022/10/27 08:33:17;;;;;;;0.00;0.00;;;;;;;19.69;55.44;98910.00;8280736;28;20237;-76
2022/10/27 08:37:21;;;;;;;0.00;0.00;;;;;;;19.27;56.26;98911.91;8280863;28;20243;-76
2022/10/27 08:41:26;;;;;;;0.00;0.00;;;;;;;19.69;55.84;98907.38;8280635;28;20239;-76
2022/10/27 08:45:33;;;;;;;0.00;0.00;;;;;;;19.99;53.97;98908.94;8312570;23;20258;-82
2022/10/27 08:49:38;;;;;;;0.00;0.00;;;;;;;19.87;55.04;98907.13;8264033;28;20235;-83
2022/10/27 08:53:49;;;;;;;0.00;0.00;;;;;;;20.65;53.55;98920.13;8264893;28;20240;-83
2022/10/27 08:58:03;;;;;;;0.00;0.00;;;;;;;21.18;52.82;98919.88;8264839;28;20249;-78
2022/10/27 09:02:21;;;;;;;0.00;0.00;;;;;;;21.51;51.18;98909.63;8265979;28;20320;-83
2022/10/27 09:06:26;;;;;;;0.00;0.00;;;;;;;21.60;51.17;98908.94;8286930;28;20301;-83
2022/10/27 09:10:40;;;;;;;0.00;0.00;;;;;;;21.64;50.75;98903.31;8286412;28;20240;-83
2022/10/27 09:15:09;;;;;;;0.00;0.00;;;;;;;22.15;50.56;98888.91;8286465;28;20253;-83
2022/10/27 09:19:19;;;;;;;0.00;0.00;;;;;;;21.90;50.96;98902.31;8286037;28;20248;-83
2022/10/27 09:23:24;;;;;;;0.00;0.00;;;;;;;22.15;50.90;98896.00;8286670;28;20521;-84
2022/10/27 09:27:41;;;;;;;0.00;0.00;;;;;;;22.12;51.38;98904.13;8286010;28;20237;-84
2022/10/27 09:31:49;;;;;;;0.00;0.00;;;;;;;22.46;49.96;98907.66;8285560;28;20245;-83
2022/10/27 09:35:52;;;;;;;0.00;0.00;;;;;;;23.16;49.02;98910.94;8286445;28;20233;-83
2022/10/27 09:39:56;;;;;;;0.00;0.00;;;;;;;23.06;48.57;98902.09;8285881;28;20250;-81
2022/10/27 09:44:03;;;;;;;0.00;0.00;;;;;;;22.77;49.25;98902.59;8285819;28;20238;-82
2022/10/27 09:48:09;;;;;;;0.00;0.00;;;;;;;23.17;48.65;98907.31;8285845;28;20237;-83
2022/10/27 09:52:16;;;;;;;0.00;0.00;;;;;;;23.08;49.06;98903.66;8285995;28;20248;-83
2022/10/27 09:56:24;;;;;;;0.00;0.00;;;;;;;23.50;48.65;98903.72;8285661;28;20250;-84
2022/10/27 10:00:29;;;;;;;0.00;0.00;;;;;;;23.70;47.54;98903.84;8285573;28;20229;-83
2022/10/27 10:04:34;;;;;;;0.00;0.00;;;;;;;22.61;48.80;98900.34;8285520;28;20246;-83
2022/10/27 10:08:38;;;;;;;0.00;0.00;;;;;;;23.18;48.94;98898.44;8285439;28;20289;-84
2022/10/27 10:12:41;;;;;;;0.00;0.00;;;;;;;23.34;47.61;98890.09;8284368;28;20237;-83
2022/10/27 10:16:46;;;;;;;0.00;0.00;;;;;;;22.99;48.85;98899.91;8284422;28;20237;-83
2022/10/27 10:20:55;;;;;;;0.00;0.00;;;;;;;22.59;50.64;98889.91;8285228;28;20241;-83
2022/10/27 10:25:00;;;;;;;0.00;0.00;;;;;;;23.01;48.66;98894.50;8284542;28;20231;-83
2022/10/27 10:29:07;;;;;;;0.00;0.00;;;;;;;23.12;48.84;98889.22;8284928;28;20284;-82
2022/10/27 10:33:16;;;;;;;0.00;0.00;;;;;;;23.41;48.45;98884.16;8284898;28;20536;-83
2022/10/27 10:37:37;;;;;;;0.00;0.00;;;;;;;23.60;48.25;98887.94;8284497;28;20226;-83
2022/10/27 10:41:40;;;;;;;0.00;0.00;;;;;;;23.26;49.47;98890.72;8284423;28;20237;-83
2022/10/27 10:45:42;;;;;;;0.00;0.00;;;;;;;22.32;51.41;98892.09;8284161;28;20244;-82
2022/10/27 10:49:49;;;;;;;0.00;0.00;;;;;;;22.84;50.00;98891.41;8284635;28;20243;-83
2022/10/27 10:53:56;;;;;;;0.00;0.00;;;;;;;22.99;50.04;98893.78;8283076;28;20235;-81
2022/10/27 10:57:59;;;;;;;0.00;0.00;;;;;;;22.70;50.95;98894.34;8283823;28;20404;-82
2022/10/27 11:02:05;;;;;;;0.00;0.00;;;;;;;23.05;49.91;98898.59;8283557;28;20517;-83
2022/10/27 11:06:17;;;;;;;0.00;0.00;;;;;;;22.95;51.53;98890.56;8283446;28;20348;-82
2022/10/27 11:10:21;;;;;;;0.00;0.00;;;;;;;22.95;51.09;98884.44;8283402;28;20245;-83
2022/10/27 11:14:26;;;;;;;0.00;0.00;;;;;;;22.89;51.10;98880.50;8283268;28;20529;-83
2022/10/27 11:18:29;;;;;;;0.00;0.00;;;;;;;;;;8283443;28;20330;-83
2022/10/27 11:22:34;;;;;;;0.00;0.00;;;;;;;22.62;51.92;98878.28;8283068;28;20424;-82
2022/10/27 11:26:39;;;;;;;0.00;0.00;;;;;;;22.35;52.73;98858.38;8282427;28;20365;-82
2022/10/27 11:30:46;;;;;;;0.00;0.00;;;;;;;22.56;51.90;98874.31;8282962;28;20325;-84
2022/10/27 11:34:56;;;;;;;0.00;0.00;;;;;;;21.95;52.80;98857.97;8282950;28;20233;-85
2022/10/27 11:39:04;;;;;;;0.00;0.00;;;;;;;22.06;53.26;98864.09;8282487;28;20373;-82
2022/10/27 11:43:11;;;;;;;0.00;0.00;;;;;;;22.25;52.74;98862.69;8282787;28;20551;-83
2022/10/27 11:47:18;;;;;;;0.00;0.00;;;;;;;21.96;53.69;98849.94;8282617;28;20237;-84
2022/10/27 11:51:29;;;;;;;0.00;0.00;;;;;;;22.05;54.07;98843.13;8282455;28;20344;-84
2022/10/27 11:55:40;;;;;;;0.00;0.00;;;;;;;22.25;52.94;98844.22;8283492;28;20236;-86
2022/10/27 11:59:53;;;;;;;0.00;0.00;;;;;;;21.99;53.83;98846.22;8282202;28;20437;-83
2022/10/27 12:04:10;;;;;;;0.00;0.00;;;;;;;22.30;53.21;98839.44;8281838;28;20432;-81
2022/10/27 12:08:21;;;;;;;0.00;0.00;;;;;;;22.32;53.20;98832.22;8282058;28;20233;-84
2022/10/27 12:12:29;;;;;;;0.00;0.00;;;;;;;21.94;54.86;98833.41;8282011;28;20302;-83
2022/10/27 12:16:35;;;;;;;0.00;0.00;;;;;;;22.29;53.89;98824.56;8281870;28;20229;-83
2022/10/27 12:20:40;;;;;;;0.00;0.00;;;;;;;21.89;54.67;98822.38;8282277;28;20552;-83
2022/10/27 12:24:47;;;;;;;0.00;0.00;;;;;;;22.21;54.24;98813.75;8281974;28;20288;-83
2022/10/27 12:28:51;;;;;;;0.00;0.00;;;;;;;22.56;53.14;98812.75;8281639;28;20575;-83
2022/10/27 12:32:58;;;;;;;0.00;0.00;;;;;;;22.30;53.20;98806.94;8281025;28;20276;-82
2022/10/27 12:37:05;;;;;;;0.00;0.00;;;;;;;22.37;52.45;98805.47;8283024;28;20233;-81
2022/10/27 12:41:11;;;;;;;0.00;0.00;;;;;;;22.75;51.53;98810.31;8288140;28;20229;-81
2022/10/27 12:45:29;;;;;;;0.00;0.00;;;;;;;22.66;51.94;98811.06;8287872;28;20239;-82
2022/10/27 12:49:38;;;;;;;0.00;0.00;;;;;;;22.86;51.67;98803.31;8288123;28;20298;-81
2022/10/27 12:53:45;;;;;;;0.00;0.00;;;;;;;22.94;50.82;98791.19;8287675;28;20269;-82
2022/10/27 12:57:51;;;;;;;0.00;0.00;;;;;;;22.59;50.63;98788.75;8287481;28;20237;-83
2022/10/27 13:01:57;;;;;;;0.00;0.00;;;;;;;22.85;49.64;98789.28;8287286;28;20237;-85
2022/10/27 13:06:09;;;;;;;0.00;0.00;;;;;;;22.92;50.12;98779.88;8287381;28;20233;-83
2022/10/27 13:10:31;;;;;;;0.00;0.00;;;;;;;23.16;49.33;98781.50;8287081;28;20250;-83
2022/10/27 13:15:26;;;;;;;0.00;0.00;;;;;;;22.94;49.59;98769.19;8286744;28;20240;-84
2022/10/27 13:19:40;;;;;;;0.00;0.00;;;;;;;22.97;49.05;98774.22;8286839;28;20226;-83
2022/10/27 13:23:56;;;;;;;0.00;0.00;;;;;;;22.84;49.20;98767.28;8286798;28;20236;-83
2022/10/27 13:28:04;;;;;;;0.00;0.00;;;;;;;23.19;48.41;98760.94;8286250;28;20241;-83
2022/10/27 13:32:27;;;;;;;0.00;0.00;;;;;;;23.49;47.82;98751.38;8286443;28;20312;-82
2022/10/27 13:36:43;;;;;;;0.00;0.00;;;;;;;23.36;48.83;98753.38;8286579;28;20545;-82
2022/10/27 13:40:46;;;;;;;0.00;0.00;;;;;;;23.42;48.39;98755.53;8286111;28;20233;-81
2022/10/27 13:44:49;;;;;;;0.00;0.00;;;;;;;23.19;48.49;98746.91;8286128;28;20243;-83
2022/10/27 13:48:51;;;;;;;0.00;0.00;;;;;;;23.07;48.87;98750.56;8285838;28;20244;-82
2022/10/27 13:53:27;;;;;;;0.00;0.00;;;;;;;22.97;48.31;98746.00;8285275;28;20233;-81
2022/10/27 13:58:06;;;;;;;0.00;0.00;;;;;;;23.19;47.44;98752.19;8287059;28;20257;-81
2022/10/27 14:02:16;;;;;;;0.00;0.00;;;;;;;23.28;47.21;98743.44;8286333;28;20241;-82
2022/10/27 14:06:30;;;;;;;0.00;0.00;;;;;;;23.27;47.39;98754.19;8285612;28;20234;-82
2022/10/27 14:10:33;;;;;;;0.00;0.00;;;;;;;23.13;47.57;98748.25;8285408;28;20238;-82
2022/10/27 14:14:38;;;;;;;0.00;0.00;;;;;;;23.25;47.00;98753.44;8285079;28;20574;-82
2022/10/27 14:18:42;;;;;;;0.00;0.00;;;;;;;23.52;46.50;98752.94;8284755;28;20410;-83
2022/10/27 14:22:48;;;;;;;0.00;0.00;;;;;;;23.40;46.92;98755.66;8285138;28;20247;-82
2022/10/27 14:26:57;;;;;;;0.00;0.00;;;;;;;23.32;47.00;98752.81;8284830;28;20233;-82
2022/10/27 14:31:10;;;;;;;0.00;0.00;;;;;;;23.41;46.97;98741.44;8285090;28;20234;-82
2022/10/27 14:35:22;;;;;;;0.00;0.00;;;;;;;23.31;46.99;98745.84;8284714;28;20237;-82
2022/10/27 14:39:27;;;;;;;0.00;0.00;;;;;;;23.17;47.54;98733.81;8284276;28;20463;-82
2022/10/27 14:43:31;;;;;;;0.00;0.00;;;;;;;22.79;48.80;98744.88;8284265;28;20233;-82
2022/10/27 14:47:36;;;;;;;0.00;0.00;;;;;;;22.93;48.23;98731.38;8284112;28;20230;-82
2022/10/27 14:51:41;;;;;;;0.00;0.00;;;;;;;22.26;49.40;98737.75;8284023;28;20570;-82
2022/10/27 14:55:44;;;;;;;0.00;0.00;;;;;;;21.96;50.41;98735.72;8283744;28;20241;-82
2022/10/27 14:59:47;;;;;;;0.00;0.00;;;;;;;22.12;50.35;98737.97;8283024;28;20237;-82
2022/10/27 15:03:49;;;;;;;0.00;0.00;;;;;;;21.93;50.57;98735.94;8283574;28;20245;-82
2022/10/27 15:07:55;;;;;;;0.00;0.00;;;;;;;21.70;51.40;98735.13;8283068;28;20238;-78
2022/10/27 15:12:00;;;;;;;0.00;0.00;;;;;;;21.57;51.32;98732.59;8283521;28;20239;-82
2022/10/27 15:16:10;;;;;;;0.00;0.00;;;;;;;21.33;52.27;98728.25;8283411;28;20306;-82
2022/10/27 15:20:16;;;;;;;0.00;0.00;;;;;;;21.32;52.61;98725.72;8283434;28;20549;-81
2022/10/27 15:24:23;;;;;;;0.00;0.00;;;;;;;21.11;53.58;98728.19;8282963;28;20238;-82
2022/10/27 15:28:27;;;;;;;0.00;0.00;;;;;;;21.01;54.20;98731.50;8282664;28;20221;-82
2022/10/27 15:32:37;;;;;;;0.00;0.00;;;;;;;20.89;55.01;98722.75;8282579;28;20234;-81
2022/10/27 15:36:42;;;;;;;0.00;0.00;;;;;;;21.00;55.14;98736.88;8282385;28;20233;-81
2022/10/27 15:40:47;;;;;;;0.00;0.00;;;;;;;20.85;55.45;98733.63;8282508;28;20308;-82
2022/10/27 15:44:50;;;;;;;0.00;0.00;;;;;;;20.87;56.12;98729.94;8282409;28;20252;-86
2022/10/27 15:48:56;;;;;;;0.00;0.00;;;;;;;20.77;56.23;98725.44;8281845;28;20528;-80
2022/10/27 15:53:07;;;;;;;0.00;0.00;;;;;;;20.51;57.59;98734.28;8281999;28;20233;-82
2022/10/27 15:57:32;;;;;;;0.00;0.00;;;;;;;20.56;56.89;98736.59;8282495;28;20241;-82
2022/10/27 16:01:35;;;;;;;0.00;0.00;;;;;;;20.53;57.37;98734.19;8281937;28;20240;-81
2022/10/27 16:05:43;;;;;;;0.00;0.00;;;;;;;20.23;58.44;98732.81;8281910;28;20240;-81
2022/10/27 16:09:46;;;;;;;0.00;0.00;;;;;;;20.37;57.70;98733.59;8282086;28;20236;-80
2022/10/27 16:13:53;;;;;;;0.00;0.00;;;;;;;20.18;58.78;98741.97;8288042;28;20244;-80
2022/10/27 16:17:57;;;;;;;0.00;0.00;;;;;;;20.11;58.67;98744.22;8287871;28;20237;-78
2022/10/27 16:22:03;;;;;;;0.00;0.00;;;;;;;20.17;58.82;98751.66;8288989;28;20532;-82
2022/10/27 16:26:05;;;;;;;0.00;0.00;;;;;;;20.22;58.42;98746.06;8288606;28;20405;-81
2022/10/27 16:30:15;;;;;;;0.00;0.00;;;;;;;20.26;58.21;98743.13;8288867;28;20255;-80
2022/10/27 16:34:20;;;;;;;0.00;0.00;;;;;;;20.11;58.48;98738.97;8288572;28;20234;-81
2022/10/27 16:38:27;;;;;;;0.00;0.00;;;;;;;19.73;60.12;98740.72;8288441;28;20229;-79
2022/10/27 16:42:31;;;;;;;0.00;0.00;;;;;;;19.85;59.87;98735.53;8288253;28;20235;-80
2022/10/27 16:46:35;;;;;;;0.00;0.00;;;;;;;19.83;60.24;98734.81;8287341;28;20240;-78
2022/10/27 16:50:38;;;;;;;0.00;0.00;;;;;;;19.83;60.03;98725.13;8287886;28;20232;-79
2022/10/27 16:54:41;;;;;;;0.00;0.00;;;;;;;19.50;61.08;98730.94;8287709;28;20237;-80
2022/10/27 16:58:44;;;;;;;0.00;0.00;;;;;;;19.24;61.78;98736.16;8287497;28;20294;-80
2022/10/27 17:02:50;;;;;;;0.00;0.00;;;;;;;19.34;61.24;98741.63;8287369;28;20252;-82
2022/10/27 17:06:53;;;;;;;0.00;0.00;;;;;;;19.28;61.79;98742.88;8286974;28;20461;-81
2022/10/27 17:10:56;;;;;;;0.00;0.00;;;;;;;19.37;61.50;98740.59;8287385;28;20240;-80
2022/10/27 17:14:58;;;;;;;0.00;0.00;;;;;;;19.30;61.54;98738.38;8287028;28;20240;-81
2022/10/27 17:19:03;;;;;;;0.00;0.00;;;;;;;19.30;61.27;98743.63;8287069;28;20427;-82
2022/10/27 17:23:06;;;;;;;0.00;0.00;;;;;;;19.10;62.49;98749.41;8286263;28;20241;-84
2022/10/27 17:27:09;;;;;;;0.00;0.00;;;;;;;19.14;62.22;98751.69;8287525;28;20259;-83
2022/10/27 17:31:12;;;;;;;0.00;0.00;;;;;;;19.24;61.38;98756.34;8286741;28;20236;-84
2022/10/27 17:35:19;;;;;;;0.00;0.00;;;;;;;19.09;62.28;98752.94;8286762;28;20254;-82
2022/10/27 17:39:22;;;;;;;0.00;0.00;;;;;;;19.23;61.38;98752.88;8286390;28;20235;-82
2022/10/27 17:43:25;;;;;;;0.00;0.00;;;;;;;19.14;61.93;98751.69;8286409;28;20286;-84
2022/10/27 17:47:31;;;;;;;0.00;0.00;;;;;;;19.05;62.02;98748.84;8286077;28;20244;-84
2022/10/27 17:51:36;;;;;;;0.00;0.00;;;;;;;19.02;62.90;98756.91;8286213;28;20247;-86
2022/10/27 17:55:38;;;;;;;0.00;0.00;;;;;;;18.97;62.58;98762.50;8285935;28;20251;-87
2022/10/27 17:59:41;;;;;;;0.00;0.00;;;;;;;18.98;62.45;98761.53;8286141;28;20343;-87
2022/10/27 18:03:45;;;;;;;0.00;0.00;;;;;;;18.92;62.81;98765.44;8285851;28;20543;-89
2022/10/27 18:07:49;;;;;;;0.00;0.00;;;;;;;18.98;62.69;98769.41;8285932;28;20236;-88
2022/10/27 18:11:52;;;;;;;0.00;0.00;;;;;;;18.94;62.76;98778.44;8285747;28;20522;-87
2022/10/27 18:15:55;;;;;;;0.00;0.00;;;;;;;18.76;63.95;98780.44;8285777;28;20279;-89
2022/10/27 18:19:58;;;;;;;0.00;0.00;;;;;;;18.55;64.80;98775.66;8285630;28;20236;-88
2022/10/27 18:24:02;;;;;;;0.00;0.00;;;;;;;18.47;65.23;98775.31;8285907;28;20234;-87
2022/10/27 18:28:06;;;;;;;0.00;0.00;;;;;;;18.54;64.07;98779.22;8284790;28;20236;-86
2022/10/27 18:32:09;;;;;;;0.00;0.00;;;;;;;18.66;65.30;98777.59;8285060;28;20552;-75
2022/10/27 18:36:13;;;;;;;0.00;0.00;;;;;;;18.75;65.89;98774.38;8283466;28;20240;-76
2022/10/27 18:40:17;;;;;;;0.00;0.00;;;;;;;18.57;64.49;98780.81;8284764;28;20244;-84
2022/10/27 18:44:20;;;;;;;0.00;0.00;;;;;;;18.60;64.29;98782.38;8284910;28;20235;-91
2022/10/27 18:48:22;;;;;;;0.00;0.00;;;;;;;18.61;64.31;98784.91;8284646;28;20240;-87
2022/10/27 18:52:25;;;;;;;0.00;0.00;;;;;;;18.59;64.31;98780.72;8284866;28;20228;-87
2022/10/27 18:56:29;;;;;;;0.00;0.00;;;;;;;18.47;64.56;98770.06;8284694;28;20239;-90
2022/10/27 19:00:33;;;;;;;0.00;0.00;;;;;;;18.46;64.81;98778.03;8284306;28;20235;-85
2022/10/27 19:04:36;;;;;;;0.00;0.00;;;;;;;18.56;63.82;98771.22;8272995;28;20241;-87
2022/10/27 19:08:39;;;;;;;0.00;0.00;;;;;;;18.51;64.46;98774.16;8283789;28;20266;-86
2022/10/27 19:12:43;;;;;;;0.00;0.00;;;;;;;18.54;64.09;98773.97;8283618;28;20293;-86
2022/10/27 19:16:47;;;;;;;0.00;0.00;;;;;;;18.42;64.95;98764.25;8283744;28;20266;-84
2022/10/27 19:20:57;;;;;;;0.00;0.00;;;;;;;18.28;65.32;98772.19;8283083;28;20232;-86